createdAt,value
2019-06-07T00:00:44.355Z,98.10
2019-06-07T00:03:24.861Z,98.10
2019-06-07T00:05:46.685Z,98.30
2019-06-07T00:08:24.833Z,98.00
2019-06-07T00:10:50.146Z,98.10
2019-06-07T00:13:20.522Z,98.00
2019-06-07T00:15:50.811Z,98.70
2019-06-07T00:18:25.963Z,98.00
2019-06-07T00:20:53.126Z,98.10
2019-06-07T00:23:23.460Z,98.40
2019-06-07T00:25:53.871Z,98.10
2019-06-07T00:28:24.591Z,98.10
2019-06-07T00:30:54.943Z,98.00
2019-06-07T00:33:25.332Z,97.90
2019-06-07T00:35:55.709Z,97.90
2019-06-07T00:38:26.030Z,98.00
2019-06-07T00:40:56.372Z,97.90
2019-06-07T00:43:28.611Z,98.10
2019-06-07T00:45:58.652Z,98.20
2019-06-07T00:48:32.758Z,98.10
2019-06-07T00:51:00.917Z,98.00
2019-06-07T00:53:32.567Z,97.80
2019-06-07T00:56:03.224Z,97.90
2019-06-07T00:58:33.774Z,97.60
2019-06-07T01:01:04.118Z,97.40
2019-06-07T01:03:34.428Z,97.30
2019-06-07T01:06:04.780Z,97.20
2019-06-07T01:08:35.250Z,97.30
2019-06-07T01:11:05.632Z,97.30
2019-06-07T01:13:36.083Z,97.40
2019-06-07T01:16:06.612Z,97.50
2019-06-07T01:18:41.206Z,97.40
2019-06-07T01:21:08.910Z,97.20
2019-06-07T01:24:10.629Z,97.10
2019-06-07T01:26:12.047Z,97.30
2019-06-07T01:28:42.762Z,97.10
2019-06-07T01:31:13.558Z,97.50
2019-06-07T01:33:50.943Z,97.50
2019-06-07T01:36:17.831Z,98.20
2019-06-07T01:38:48.235Z,98.60
2019-06-07T01:41:22.018Z,98.70
2019-06-07T01:43:50.624Z,99.20
2019-06-07T01:46:23.402Z,99.10
2019-06-07T01:48:53.564Z,99.00
2019-06-07T01:51:24.426Z,99.30
2019-06-07T01:54:41.344Z,99.20
2019-06-07T01:56:29.582Z,99.20
2019-06-07T01:58:59.610Z,99.50
2019-06-07T02:01:35.223Z,98.90
2019-06-07T02:04:03.053Z,99.00
2019-06-07T02:06:33.755Z,99.00
2019-06-07T02:09:05.707Z,98.90
2019-06-07T02:11:36.126Z,98.90
2019-06-07T02:14:06.880Z,99.10
2019-06-07T02:16:37.256Z,99.90
2019-06-07T02:19:07.639Z,99.90
2019-06-07T02:21:37.950Z,99.90
2019-06-07T02:24:08.299Z,99.90
2019-06-07T02:26:38.962Z,99.90
2019-06-07T02:29:09.433Z,99.90
2019-06-07T02:31:40.095Z,99.90
2019-06-07T02:34:10.511Z,99.90
2019-06-07T02:36:41.717Z,99.90
2019-06-07T02:39:12.304Z,99.90
2019-06-07T02:41:42.636Z,99.90
2019-06-07T02:44:12.954Z,99.90
2019-06-07T02:46:48.752Z,99.90
2019-06-07T02:49:15.247Z,99.90
2019-06-07T02:51:45.603Z,99.90
2019-06-07T02:54:15.940Z,99.90
2019-06-07T02:56:58.105Z,99.90
2019-06-07T02:59:45.516Z,99.90
2019-06-07T03:01:52.410Z,99.90
2019-06-07T03:04:22.760Z,99.90
2019-06-07T03:06:56.355Z,99.90
2019-06-07T03:09:30.830Z,99.90
2019-06-07T03:12:02.255Z,99.90
2019-06-07T03:14:37.083Z,99.90
2019-06-07T03:17:24.598Z,99.90
2019-06-07T03:19:56.732Z,99.90
2019-06-07T03:22:27.068Z,99.90
2019-06-07T03:25:01.694Z,99.90
2019-06-07T03:27:40.636Z,99.90
2019-06-07T03:30:35.010Z,99.90
2019-06-07T03:32:46.488Z,99.90
2019-06-07T03:35:09.165Z,99.90
2019-06-07T03:37:42.928Z,99.90
2019-06-07T03:40:12.639Z,99.90
2019-06-07T03:42:42.969Z,99.90
2019-06-07T03:45:13.320Z,99.90
2019-06-07T03:47:43.690Z,99.90
2019-06-07T03:50:14.168Z,99.90
2019-06-07T03:52:44.463Z,99.90
2019-06-07T03:55:14.824Z,99.90
2019-06-07T03:58:30.197Z,99.90
2019-06-07T04:00:17.213Z,99.90
2019-06-07T04:02:47.536Z,99.90
2019-06-07T04:05:17.993Z,99.90
2019-06-07T04:07:48.318Z,99.90
2019-06-07T04:10:18.723Z,99.90
2019-06-07T04:12:49.057Z,99.90
2019-06-07T04:15:19.429Z,99.90
2019-06-07T04:18:01.426Z,99.90
2019-06-07T04:20:21.815Z,99.90
2019-06-07T04:22:52.138Z,99.90
2019-06-07T04:25:22.519Z,99.90
2019-06-07T04:27:52.800Z,99.90
2019-06-07T04:30:41.517Z,99.90
2019-06-07T04:33:12.406Z,99.90
2019-06-07T04:35:45.294Z,99.90
2019-06-07T04:38:16.214Z,99.90
2019-06-07T04:40:47.438Z,99.90
2019-06-07T04:43:17.763Z,99.90
2019-06-07T04:45:51.318Z,99.90
2019-06-07T04:48:22.309Z,99.90
2019-06-07T04:50:55.030Z,99.90
2019-06-07T04:53:25.403Z,99.90
2019-06-07T04:55:56.100Z,99.90
2019-06-07T04:58:26.388Z,99.90
2019-06-07T05:01:03.112Z,99.90
2019-06-07T05:03:31.384Z,99.90
2019-06-07T05:06:00.679Z,99.90
2019-06-07T05:08:33.185Z,99.90
2019-06-07T05:11:02.942Z,99.90
2019-06-07T05:13:37.860Z,99.90
2019-06-07T05:16:05.347Z,99.90
2019-06-07T05:18:39.602Z,99.90
2019-06-07T05:21:07.668Z,99.90
2019-06-07T05:26:09.989Z,99.90
2019-06-07T05:28:42.828Z,99.90
2019-06-07T05:31:12.478Z,99.70
2019-06-07T05:33:43.574Z,99.70
2019-06-07T05:36:14.144Z,99.60
2019-06-07T05:38:45.062Z,99.40
2019-06-07T05:41:15.597Z,99.40
2019-06-07T05:44:00.638Z,99.20
2019-06-07T05:46:17.908Z,99.10
2019-06-07T05:48:48.509Z,99.10
2019-06-07T05:51:18.907Z,98.90
2019-06-07T05:53:49.255Z,98.30
2019-06-07T05:56:19.633Z,97.80
2019-06-07T05:58:49.958Z,97.40
2019-06-07T06:01:42.996Z,97.00
2019-06-07T06:03:52.297Z,96.90
2019-06-07T06:06:22.654Z,97.00
2019-06-07T06:09:11.599Z,97.10
2019-06-07T06:11:43.080Z,97.10
2019-06-07T06:14:07.395Z,97.00
2019-06-07T06:16:45.356Z,97.30
2019-06-07T06:19:13.154Z,97.30
2019-06-07T06:21:46.310Z,97.30
2019-06-07T06:24:15.408Z,97.40
2019-06-07T06:26:51.195Z,97.00
2019-06-07T06:29:17.719Z,96.30
2019-06-07T06:32:35.867Z,95.90
2019-06-07T06:34:20.066Z,95.90
2019-06-07T06:36:50.590Z,95.80
2019-06-07T06:39:20.965Z,95.90
2019-06-07T06:42:01.234Z,95.60
2019-06-07T06:44:23.252Z,95.50
2019-06-07T06:46:58.270Z,95.20
2019-06-07T06:49:25.537Z,94.50
2019-06-07T06:51:55.917Z,93.90
2019-06-07T06:54:40.317Z,93.20
2019-06-07T06:57:18.079Z,93.10
2019-06-07T06:59:39.572Z,92.90
2019-06-07T07:02:03.184Z,92.80
2019-06-07T07:04:34.160Z,93.00
2019-06-07T07:07:04.518Z,93.50
2019-06-07T07:09:36.158Z,94.00
2019-06-07T07:12:12.201Z,93.90
2019-06-07T07:14:38.502Z,93.30
2019-06-07T07:17:08.826Z,93.00
2019-06-07T07:19:39.124Z,93.00
2019-06-07T07:22:09.557Z,93.10
2019-06-07T07:24:39.916Z,93.20
2019-06-07T07:27:10.227Z,93.70
2019-06-07T07:29:40.710Z,93.80
2019-06-07T07:32:11.056Z,94.20
2019-06-07T07:34:45.513Z,94.20
2019-06-07T07:37:13.428Z,93.80
2019-06-07T07:39:45.318Z,93.40
2019-06-07T07:42:21.209Z,93.20
2019-06-07T07:44:49.902Z,93.60
2019-06-07T07:47:19.820Z,93.90
2019-06-07T07:49:53.028Z,93.90
2019-06-07T07:52:22.077Z,93.80
2019-06-07T07:54:56.275Z,93.60
2019-06-07T07:57:24.775Z,93.50
2019-06-07T08:00:13.240Z,93.60
2019-06-07T08:02:27.116Z,93.50
2019-06-07T08:05:22.642Z,92.90
2019-06-07T08:07:30.444Z,92.90
2019-06-07T08:10:03.909Z,92.70
2019-06-07T08:12:55.798Z,92.90
2019-06-07T08:15:05.140Z,92.00
2019-06-07T08:17:35.716Z,91.10
2019-06-07T08:20:06.147Z,91.00
2019-06-07T08:22:36.459Z,91.40
2019-06-07T08:25:06.917Z,91.30
2019-06-07T08:27:37.224Z,91.40
2019-06-07T08:30:46.411Z,90.70
2019-06-07T08:32:41.100Z,90.30
2019-06-07T08:35:11.436Z,90.30
2019-06-07T08:38:15.056Z,90.40
2019-06-07T08:40:15.561Z,90.20
2019-06-07T08:43:03.127Z,89.20
2019-06-07T08:45:19.608Z,87.80
2019-06-07T08:47:53.569Z,87.90
2019-06-07T08:50:22.202Z,86.80
2019-06-07T08:52:56.062Z,88.00
2019-06-07T08:55:24.627Z,87.50
2019-06-07T08:58:02.220Z,86.90
2019-06-07T09:00:45.207Z,86.30
2019-06-07T09:03:06.484Z,86.20
2019-06-07T09:05:31.618Z,86.70
2019-06-07T09:08:23.604Z,87.20
2019-06-07T09:10:34.954Z,85.90
2019-06-07T09:13:11.353Z,85.60
2019-06-07T09:15:37.460Z,85.60
2019-06-07T09:18:40.029Z,84.30
2019-06-07T09:20:45.222Z,84.50
2019-06-07T09:23:17.000Z,84.60
2019-06-07T09:25:57.525Z,84.10
2019-06-07T09:28:20.833Z,85.30
2019-06-07T09:30:51.822Z,86.00
2019-06-07T09:33:22.155Z,85.20
2019-06-07T09:35:52.697Z,84.40
2019-06-07T09:38:26.260Z,82.20
2019-06-07T09:40:57.386Z,82.60
2019-06-07T09:46:01.159Z,80.30
2019-06-07T09:51:09.757Z,79.20
2019-06-07T09:53:34.983Z,78.50
2019-06-07T09:56:08.676Z,78.80
2019-06-07T09:58:54.219Z,78.20
2019-06-07T10:01:13.322Z,77.90
2019-06-07T10:03:41.256Z,79.50
2019-06-07T10:06:13.570Z,79.00
2019-06-07T10:11:17.430Z,76.70
2019-06-07T10:13:48.811Z,77.10
2019-06-07T10:16:19.195Z,75.90
2019-06-07T10:18:49.548Z,74.50
2019-06-07T10:21:19.880Z,73.90
2019-06-07T10:23:50.239Z,74.00
2019-06-07T10:26:20.584Z,73.00
2019-06-07T10:28:53.443Z,73.20
2019-06-07T10:31:22.888Z,73.00
2019-06-07T10:33:53.291Z,72.70
2019-06-07T10:36:23.640Z,72.50
2019-06-07T10:38:53.982Z,72.10
2019-06-07T10:41:25.291Z,72.10
2019-06-07T10:43:55.603Z,72.40
2019-06-07T10:46:25.987Z,73.10
2019-06-07T10:48:56.588Z,71.60
2019-06-07T10:51:27.061Z,71.70
2019-06-07T10:53:57.462Z,73.40
2019-06-07T10:56:27.844Z,72.40
2019-06-07T10:58:58.217Z,70.60
2019-06-07T11:01:28.557Z,71.50
2019-06-07T11:03:58.906Z,70.00
2019-06-07T11:06:29.334Z,70.80
2019-06-07T11:08:59.661Z,71.40
2019-06-07T11:11:30.017Z,69.00
2019-06-07T11:14:00.366Z,69.30
2019-06-07T11:16:30.724Z,68.60
2019-06-07T11:19:01.055Z,65.50
2019-06-07T11:21:31.427Z,60.90
2019-06-07T11:24:01.749Z,57.40
2019-06-07T11:26:32.145Z,55.80
2019-06-07T11:29:02.459Z,52.40
2019-06-07T11:31:32.819Z,49.50
2019-06-07T11:34:03.152Z,47.20
2019-06-07T11:36:33.502Z,44.30
2019-06-07T11:39:06.724Z,43.10
2019-06-07T11:41:37.256Z,38.80
2019-06-07T11:44:08.775Z,38.40
2019-06-07T11:46:39.330Z,37.90
2019-06-07T11:49:10.869Z,37.20
2019-06-07T11:51:42.810Z,36.70
2019-06-07T11:54:13.980Z,37.40
2019-06-07T11:56:44.591Z,36.20
2019-06-07T11:59:15.327Z,35.20
2019-06-07T12:01:45.689Z,35.00
2019-06-07T12:04:33.850Z,34.40
2019-06-07T12:06:48.000Z,34.20
2019-06-07T12:09:18.761Z,33.40
2019-06-07T12:11:49.263Z,33.10
2019-06-07T12:14:19.611Z,32.80
2019-06-07T12:16:50.200Z,33.10
2019-06-07T12:19:21.539Z,31.90
2019-06-07T12:21:51.895Z,31.60
2019-06-07T12:24:23.302Z,31.60
2019-06-07T12:26:54.789Z,31.60
2019-06-07T12:29:25.100Z,31.50
2019-06-07T12:31:55.501Z,30.50
2019-06-07T12:34:25.829Z,30.30
2019-06-07T12:36:56.272Z,30.40
2019-06-07T12:39:26.695Z,30.20
2019-06-07T12:41:57.048Z,30.00
2019-06-07T12:44:27.401Z,30.20
2019-06-07T12:46:57.755Z,31.10
2019-06-07T12:49:28.082Z,31.40
2019-06-07T12:51:58.431Z,31.10
2019-06-07T12:54:28.736Z,30.50
2019-06-07T12:56:59.174Z,30.10
2019-06-07T12:59:30.357Z,30.20
2019-06-07T13:02:02.477Z,30.30
2019-06-07T13:04:32.716Z,30.20
2019-06-07T13:07:03.062Z,30.00
2019-06-07T13:09:35.982Z,29.70
2019-06-07T13:12:05.456Z,29.90
2019-06-07T13:14:35.785Z,28.70
2019-06-07T13:17:06.157Z,28.20
2019-06-07T13:19:36.455Z,27.80
2019-06-07T13:22:06.812Z,27.40
2019-06-07T13:24:37.309Z,27.10
2019-06-07T13:27:07.794Z,26.70
2019-06-07T13:29:38.115Z,27.20
2019-06-07T13:32:08.482Z,27.30
2019-06-07T13:34:38.799Z,27.20
2019-06-07T13:37:10.141Z,27.10
2019-06-07T13:39:40.470Z,27.10
2019-06-07T13:42:11.782Z,27.30
2019-06-07T13:44:42.175Z,27.50
2019-06-07T13:47:13.842Z,27.30
2019-06-07T13:49:44.164Z,26.60
2019-06-07T13:52:15.776Z,26.10
2019-06-07T13:54:46.113Z,26.10
2019-06-07T13:57:17.924Z,25.80
2019-06-07T13:59:48.397Z,25.20
2019-06-07T14:02:18.749Z,24.70
2019-06-07T14:04:49.058Z,24.30
2019-06-07T14:07:21.114Z,24.10
2019-06-07T14:09:51.535Z,23.70
2019-06-07T14:12:22.196Z,23.60
2019-06-07T14:14:53.238Z,23.90
2019-06-07T14:17:23.645Z,24.70
2019-06-07T14:19:53.984Z,25.30
2019-06-07T14:22:24.771Z,25.90
2019-06-07T14:24:55.155Z,25.70
2019-06-07T14:27:25.557Z,25.80
2019-06-07T14:29:55.884Z,26.30
2019-06-07T14:32:26.620Z,26.30
2019-06-07T14:34:57.074Z,26.30
2019-06-07T14:37:28.920Z,27.40
2019-06-07T14:39:59.447Z,28.50
2019-06-07T14:42:29.885Z,29.40
2019-06-07T14:45:05.580Z,31.00
2019-06-07T14:47:32.263Z,31.60
2019-06-07T14:50:02.839Z,32.50
2019-06-07T14:52:34.672Z,33.50
2019-06-07T14:55:05.585Z,33.90
2019-06-07T14:57:36.043Z,34.50
2019-06-07T15:00:11.246Z,35.30
2019-06-07T15:02:40.080Z,36.40
2019-06-07T15:05:10.917Z,37.10
2019-06-07T15:07:41.245Z,38.10
2019-06-07T15:10:11.749Z,38.70
2019-06-07T15:12:42.061Z,39.40
2019-06-07T15:15:12.410Z,39.50
2019-06-07T15:17:43.033Z,39.60
2019-06-07T15:20:13.668Z,39.40
2019-06-07T15:22:43.987Z,39.10
2019-06-07T15:25:14.566Z,39.00
2019-06-07T15:27:44.935Z,38.90
2019-06-07T15:30:16.988Z,39.80
2019-06-07T15:32:47.468Z,39.20
2019-06-07T15:35:18.951Z,38.80
2019-06-07T15:37:49.304Z,39.10
2019-06-07T15:40:19.974Z,39.30
2019-06-07T15:42:53.220Z,38.70
2019-06-07T15:45:22.381Z,38.90
2019-06-07T15:47:52.691Z,38.50
2019-06-07T15:50:23.242Z,39.10
2019-06-07T15:52:53.551Z,40.00
2019-06-07T15:55:24.022Z,40.80
2019-06-07T15:57:54.348Z,42.60
2019-06-07T16:00:24.734Z,43.70
2019-06-07T16:02:55.103Z,44.00
2019-06-07T16:05:25.419Z,44.60
2019-06-07T16:07:55.746Z,44.80
2019-06-07T16:10:26.076Z,44.60
2019-06-07T16:13:00.531Z,45.10
2019-06-07T16:15:28.362Z,46.00
2019-06-07T16:17:58.720Z,46.60
2019-06-07T16:20:29.045Z,46.40
2019-06-07T16:22:59.479Z,46.00
2019-06-07T16:27:59.463Z,47.00
2019-06-07T16:30:29.937Z,47.80
2019-06-07T16:33:00.273Z,47.10
2019-06-07T16:35:30.575Z,47.00
2019-06-07T16:38:01.039Z,46.50
2019-06-07T16:40:31.386Z,46.30
2019-06-07T16:43:16.241Z,46.00
2019-06-07T16:45:33.655Z,45.90
2019-06-07T16:48:04.109Z,45.80
2019-06-07T16:50:34.432Z,45.50
2019-06-07T16:53:04.784Z,45.60
2019-06-07T16:55:36.750Z,45.50
2019-06-07T16:58:07.169Z,45.40
2019-06-07T17:00:38.678Z,45.60
2019-06-07T17:03:09.492Z,45.50
2019-06-07T17:05:43.371Z,45.60
2019-06-07T17:08:11.770Z,45.80
2019-06-07T17:10:42.574Z,46.00
2019-06-07T17:13:13.069Z,45.70
2019-06-07T17:15:44.803Z,45.40
2019-06-07T17:18:15.638Z,45.20
2019-06-07T17:20:47.276Z,45.30
2019-06-07T17:23:17.710Z,45.00
2019-06-07T17:25:48.018Z,44.50
2019-06-07T17:28:18.388Z,44.50
2019-06-07T17:30:50.166Z,44.90
2019-06-07T17:33:20.734Z,46.00
2019-06-07T17:35:51.167Z,46.50
2019-06-07T17:38:21.634Z,47.10
2019-06-07T17:40:51.943Z,46.50
2019-06-07T17:43:22.297Z,46.40
2019-06-07T17:45:52.600Z,46.80
2019-06-07T17:48:24.050Z,47.00
2019-06-07T17:50:54.480Z,46.00
2019-06-07T17:53:24.889Z,46.40
2019-06-07T17:55:55.215Z,46.40
2019-06-07T17:58:25.591Z,46.40
2019-06-07T18:00:55.895Z,45.80
2019-06-07T18:03:26.232Z,46.80
2019-06-07T18:05:56.527Z,48.40
2019-06-07T18:08:27.482Z,48.50
2019-06-07T18:10:57.807Z,47.70
2019-06-07T18:13:28.137Z,47.40
2019-06-07T18:15:59.855Z,47.40
2019-06-07T18:18:30.417Z,47.40
2019-06-07T18:21:00.723Z,47.70
2019-06-07T18:23:32.631Z,48.20
2019-06-07T18:26:02.966Z,48.00
2019-06-07T18:28:34.702Z,47.70
2019-06-07T18:31:05.060Z,47.80
2019-06-07T18:33:35.472Z,47.90
2019-06-07T18:36:05.981Z,48.00
2019-06-07T18:38:36.363Z,49.60
2019-06-07T18:41:06.711Z,50.60
2019-06-07T18:43:37.074Z,53.60
2019-06-07T18:46:08.352Z,55.90
2019-06-07T18:48:39.194Z,57.20
2019-06-07T18:51:09.492Z,58.50
2019-06-07T18:53:39.843Z,59.40
2019-06-07T18:56:10.228Z,59.30
2019-06-07T18:58:40.592Z,59.40
2019-06-07T19:01:10.959Z,60.60
2019-06-07T19:03:41.919Z,61.90
2019-06-07T19:06:12.237Z,63.00
2019-06-07T19:08:42.583Z,61.30
2019-06-07T19:11:12.912Z,61.70
2019-06-07T19:13:43.352Z,61.10
2019-06-07T19:16:14.713Z,61.10
2019-06-07T19:18:45.091Z,59.60
2019-06-07T19:21:18.509Z,58.10
2019-06-07T19:23:50.026Z,57.50
2019-06-07T19:26:20.406Z,57.00
2019-06-07T19:28:50.808Z,56.10
2019-06-07T19:31:21.238Z,55.60
2019-06-07T19:33:53.028Z,55.10
2019-06-07T19:36:23.630Z,54.80
2019-06-07T19:38:54.140Z,54.30
2019-06-07T19:41:24.459Z,54.00
2019-06-07T19:43:56.119Z,54.00
2019-06-07T19:46:26.531Z,56.00
2019-06-07T19:48:56.986Z,57.80
2019-06-07T19:51:27.423Z,59.60
2019-06-07T19:53:58.908Z,60.40
2019-06-07T19:56:29.565Z,62.60
2019-06-07T19:59:00.019Z,63.70
2019-06-07T20:01:30.371Z,66.30
2019-06-07T20:04:02.477Z,69.40
2019-06-07T20:06:34.508Z,70.20
2019-06-07T20:09:06.291Z,71.70
2019-06-07T20:11:36.924Z,72.10
2019-06-07T20:14:07.360Z,73.50
2019-06-07T20:16:37.707Z,74.20
2019-06-07T20:19:08.958Z,75.40
2019-06-07T20:21:40.491Z,77.30
2019-06-07T20:24:24.855Z,77.50
2019-06-07T20:26:43.444Z,77.70
2019-06-07T20:29:25.306Z,78.40
2019-06-07T20:31:46.886Z,80.00
2019-06-07T20:34:17.540Z,80.70
2019-06-07T20:36:48.041Z,80.70
2019-06-07T20:39:18.485Z,81.70
2019-06-07T20:41:49.076Z,82.20
2019-06-07T20:44:19.459Z,83.70
2019-06-07T20:46:50.171Z,83.20
2019-06-07T20:49:20.669Z,83.20
2019-06-07T20:51:51.193Z,84.20
2019-06-07T20:54:21.559Z,83.50
2019-06-07T20:56:51.964Z,84.30
2019-06-07T20:59:25.442Z,84.50
2019-06-07T21:01:57.154Z,84.90
2019-06-07T21:04:27.515Z,84.50
2019-06-07T21:06:59.120Z,84.30
2019-06-07T21:09:29.592Z,84.70
2019-06-07T21:11:59.908Z,85.20
2019-06-07T21:14:30.251Z,85.70
2019-06-07T21:17:00.603Z,86.30
2019-06-07T21:19:31.054Z,85.30
2019-06-07T21:22:02.386Z,85.40
2019-06-07T21:24:32.804Z,85.50
2019-06-07T21:27:03.524Z,85.60
2019-06-07T21:29:33.961Z,85.20
2019-06-07T21:32:05.433Z,85.40
2019-06-07T21:34:35.941Z,85.80
2019-06-07T21:37:06.279Z,86.20
2019-06-07T21:39:36.659Z,86.50
2019-06-07T21:42:08.073Z,86.60
2019-06-07T21:44:38.529Z,86.50
2019-06-07T21:47:08.894Z,86.70
2019-06-07T21:49:39.230Z,87.20
2019-06-07T21:52:10.721Z,87.10
2019-06-07T21:54:52.984Z,87.30
2019-06-07T21:57:23.352Z,87.60
2019-06-07T21:59:53.691Z,87.80
2019-06-07T22:02:24.031Z,88.30
2019-06-07T22:04:54.342Z,88.20
2019-06-07T22:07:24.694Z,88.30
2019-06-07T22:09:55.015Z,88.60
2019-06-07T22:12:25.389Z,87.40
2019-06-07T22:14:55.695Z,87.00
2019-06-07T22:17:26.047Z,86.20
2019-06-07T22:19:56.358Z,85.00
2019-06-07T22:22:26.950Z,83.50
2019-06-07T22:24:57.271Z,82.50
2019-06-07T22:27:27.615Z,81.90
2019-06-07T22:29:57.918Z,80.70
2019-06-07T22:32:28.319Z,80.00
2019-06-07T22:34:58.628Z,79.10
2019-06-07T22:37:28.983Z,78.30
2019-06-07T22:39:59.296Z,77.60
2019-06-07T22:42:31.862Z,76.90
2019-06-07T22:45:04.419Z,76.10
2019-06-07T22:47:36.997Z,75.40
2019-06-07T22:50:08.582Z,75.00
2019-06-07T22:52:41.335Z,74.60
2019-06-07T22:55:13.950Z,74.40
2019-06-07T22:58:03.996Z,74.20
2019-06-07T23:00:37.704Z,73.90
2019-06-07T23:03:08.561Z,73.50
2019-06-07T23:05:38.989Z,73.70
2019-06-07T23:08:09.343Z,73.50
2019-06-07T23:10:39.680Z,73.30
2019-06-07T23:13:11.589Z,72.80
2019-06-07T23:15:42.294Z,72.60
2019-06-07T23:18:13.454Z,72.80
2019-06-07T23:20:43.757Z,72.10
2019-06-07T23:23:14.926Z,71.80
2019-06-07T23:25:45.303Z,71.50
2019-06-07T23:28:16.584Z,71.40
2019-06-07T23:30:46.938Z,71.50
2019-06-07T23:33:17.287Z,71.50
2019-06-07T23:35:47.607Z,71.50
2019-06-07T23:38:19.122Z,71.20
2019-06-07T23:40:50.791Z,71.10
2019-06-07T23:43:21.594Z,70.60
2019-06-07T23:45:51.998Z,70.40
2019-06-07T23:48:22.323Z,70.20
2019-06-07T23:50:52.737Z,70.10
2019-06-07T23:53:23.079Z,69.70
2019-06-07T23:55:53.389Z,69.50
2019-06-07T23:58:23.762Z,69.40
